createdAt,value
2017-06-29T00:00:45.704Z,5.97
2017-06-29T00:03:15.321Z,6.20
2017-06-29T00:05:43.679Z,5.50
2017-06-29T00:08:11.975Z,7.40
2017-06-29T00:10:40.271Z,6.10
2017-06-29T00:13:08.710Z,5.03
2017-06-29T00:15:36.995Z,6.20
2017-06-29T00:18:05.287Z,5.40
2017-06-29T00:20:33.619Z,5.50
2017-06-29T00:23:01.934Z,5.40
2017-06-29T00:25:31.260Z,5.60
2017-06-29T00:27:59.597Z,6.37
2017-06-29T00:30:27.932Z,6.43
2017-06-29T00:32:56.235Z,5.60
2017-06-29T00:35:24.564Z,5.53
2017-06-29T00:37:52.860Z,6.10
2017-06-29T00:40:21.192Z,5.93
2017-06-29T00:42:50.292Z,5.63
2017-06-29T00:45:19.350Z,6.00
2017-06-29T00:47:47.700Z,7.60
2017-06-29T00:50:16.760Z,6.67
2017-06-29T00:52:45.051Z,8.10
2017-06-29T00:55:13.390Z,7.10
2017-06-29T00:57:41.680Z,5.50
2017-06-29T01:00:10.028Z,7.20
2017-06-29T01:02:38.327Z,7.57
2017-06-29T01:05:06.612Z,6.03
2017-06-29T01:07:34.947Z,7.27
2017-06-29T01:10:03.240Z,7.20
2017-06-29T01:12:31.684Z,8.10
2017-06-29T01:15:02.741Z,8.73
2017-06-29T01:17:31.256Z,9.10
2017-06-29T01:20:00.322Z,9.23
2017-06-29T01:22:31.510Z,9.20
2017-06-29T01:25:00.575Z,9.07
2017-06-29T01:27:28.908Z,7.67
2017-06-29T01:29:57.970Z,7.10
2017-06-29T01:32:26.480Z,7.10
2017-06-29T01:34:54.774Z,6.83
2017-06-29T01:37:23.064Z,6.70
2017-06-29T01:39:51.904Z,7.07
2017-06-29T01:42:20.965Z,7.60
2017-06-29T01:44:49.255Z,6.23
2017-06-29T01:47:17.863Z,8.50
2017-06-29T01:49:46.164Z,7.07
2017-06-29T01:52:14.467Z,7.93
2017-06-29T01:54:42.825Z,7.20
2017-06-29T01:57:11.120Z,7.30
2017-06-29T01:59:39.459Z,7.70
2017-06-29T02:02:07.796Z,7.47
2017-06-29T02:04:36.097Z,8.60
2017-06-29T02:07:04.556Z,10.00
2017-06-29T02:09:33.854Z,9.80
2017-06-29T02:12:02.141Z,7.20
2017-06-29T02:14:30.476Z,7.57
2017-06-29T02:16:58.831Z,7.40
2017-06-29T02:19:27.163Z,7.30
2017-06-29T02:21:55.497Z,6.60
2017-06-29T02:24:23.795Z,7.53
2017-06-29T02:26:52.131Z,7.80
2017-06-29T02:29:20.448Z,6.57
2017-06-29T02:31:49.543Z,7.50
2017-06-29T02:34:18.645Z,6.40
2017-06-29T02:36:46.979Z,7.90
2017-06-29T02:39:15.287Z,10.33
2017-06-29T02:41:43.648Z,9.23
2017-06-29T02:44:11.944Z,8.73
2017-06-29T02:46:40.264Z,7.50
2017-06-29T02:49:08.595Z,8.20
2017-06-29T02:51:36.952Z,8.00
2017-06-29T02:54:05.280Z,7.00
2017-06-29T02:56:33.627Z,8.00
2017-06-29T02:59:03.899Z,6.57
2017-06-29T03:01:33.020Z,6.47
2017-06-29T03:04:01.675Z,8.63
2017-06-29T03:06:29.977Z,8.80
2017-06-29T03:08:58.329Z,7.43
2017-06-29T03:11:26.631Z,6.60
2017-06-29T03:13:54.983Z,7.00
2017-06-29T03:16:23.287Z,7.57
2017-06-29T03:18:51.571Z,6.10
2017-06-29T03:21:19.910Z,10.03
2017-06-29T03:23:48.208Z,8.60
2017-06-29T03:26:16.566Z,7.33
2017-06-29T03:28:44.860Z,8.10
2017-06-29T03:31:13.188Z,8.50
2017-06-29T03:33:42.281Z,8.73
2017-06-29T03:36:10.794Z,8.97
2017-06-29T03:38:39.090Z,8.20
2017-06-29T03:41:07.386Z,8.33
2017-06-29T03:43:35.726Z,7.93
2017-06-29T03:46:04.169Z,7.27
2017-06-29T03:48:32.464Z,8.00
2017-06-29T03:51:00.771Z,8.13
2017-06-29T03:53:29.099Z,6.93
2017-06-29T03:55:57.392Z,6.47
2017-06-29T03:58:25.724Z,6.70
2017-06-29T04:00:54.035Z,7.03
2017-06-29T04:03:22.345Z,7.20
2017-06-29T04:05:50.679Z,6.13
2017-06-29T04:08:18.978Z,7.23
2017-06-29T04:10:47.336Z,6.47
2017-06-29T04:13:15.646Z,8.47
2017-06-29T04:15:45.550Z,10.50
2017-06-29T04:18:13.898Z,8.53
2017-06-29T04:20:42.205Z,8.30
2017-06-29T04:23:10.559Z,8.37
2017-06-29T04:25:38.851Z,7.90
2017-06-29T04:28:07.139Z,7.07
2017-06-29T04:30:35.584Z,8.70
2017-06-29T04:33:04.623Z,8.83
2017-06-29T04:35:32.926Z,12.47
2017-06-29T04:38:01.224Z,8.07
2017-06-29T04:40:29.567Z,7.70
2017-06-29T04:42:57.941Z,6.40
2017-06-29T04:45:28.857Z,6.40
2017-06-29T04:47:57.152Z,6.83
2017-06-29T04:50:25.500Z,5.70
2017-06-29T04:52:54.560Z,6.80
2017-06-29T04:55:22.851Z,5.60
2017-06-29T04:57:51.203Z,6.43
2017-06-29T05:00:19.496Z,6.60
2017-06-29T05:02:47.793Z,5.80
2017-06-29T05:05:16.123Z,6.03
2017-06-29T05:07:44.424Z,5.67
2017-06-29T05:10:12.774Z,6.10
2017-06-29T05:12:41.074Z,6.60
2017-06-29T05:15:09.373Z,6.30
2017-06-29T05:17:37.702Z,7.30
2017-06-29T05:20:06.764Z,7.17
2017-06-29T05:22:35.119Z,8.60
2017-06-29T05:25:03.411Z,6.53
2017-06-29T05:27:31.702Z,7.20
2017-06-29T05:30:00.040Z,6.40
2017-06-29T05:32:28.333Z,6.33
2017-06-29T05:34:56.770Z,6.47
2017-06-29T05:37:25.057Z,6.47
2017-06-29T05:39:53.408Z,7.00
2017-06-29T05:42:21.908Z,6.20
2017-06-29T05:44:50.199Z,6.63
2017-06-29T05:47:18.514Z,6.77
2017-06-29T05:49:46.956Z,6.80
2017-06-29T05:52:15.239Z,8.83
2017-06-29T05:54:43.541Z,7.20
2017-06-29T05:57:11.883Z,7.20
2017-06-29T05:59:42.414Z,7.00
2017-06-29T06:02:10.848Z,7.70
2017-06-29T06:04:45.909Z,6.53
2017-06-29T06:07:14.232Z,7.57
2017-06-29T06:09:42.528Z,7.83
2017-06-29T06:12:11.639Z,7.10
2017-06-29T06:14:40.707Z,7.63
2017-06-29T06:17:08.997Z,7.40
2017-06-29T06:19:37.350Z,7.90
2017-06-29T06:22:05.640Z,7.57
2017-06-29T06:24:34.156Z,7.10
2017-06-29T06:27:02.452Z,8.30
2017-06-29T06:29:30.755Z,8.37
2017-06-29T06:31:59.115Z,7.77
2017-06-29T06:34:27.410Z,7.37
2017-06-29T06:36:55.854Z,7.07
2017-06-29T06:39:24.144Z,8.50
2017-06-29T06:41:52.462Z,7.70
2017-06-29T06:44:20.795Z,7.80
2017-06-29T06:46:49.095Z,8.97
2017-06-29T06:49:17.432Z,7.27
2017-06-29T06:51:45.763Z,7.63
2017-06-29T06:54:14.077Z,7.87
2017-06-29T06:56:42.434Z,7.47
2017-06-29T06:59:10.731Z,8.57
2017-06-29T07:01:39.024Z,7.17
2017-06-29T07:04:07.361Z,6.50
2017-06-29T07:06:35.661Z,7.87
2017-06-29T07:09:04.007Z,8.10
2017-06-29T07:11:32.299Z,7.60
2017-06-29T07:14:01.355Z,6.10
2017-06-29T07:16:29.964Z,6.83
2017-06-29T07:18:58.252Z,6.80
2017-06-29T07:21:26.563Z,8.40
2017-06-29T07:23:54.903Z,8.13
2017-06-29T07:26:23.193Z,8.90
2017-06-29T07:28:51.528Z,8.30
2017-06-29T07:31:19.969Z,8.00
2017-06-29T07:33:48.310Z,7.83
2017-06-29T07:36:16.575Z,9.80
2017-06-29T07:38:45.012Z,11.00
2017-06-29T07:41:13.307Z,12.27
2017-06-29T07:43:41.616Z,11.40
2017-06-29T07:46:09.967Z,12.07
2017-06-29T07:48:38.272Z,12.13
2017-06-29T07:51:07.627Z,11.00
2017-06-29T07:53:35.927Z,10.43
2017-06-29T07:56:04.356Z,7.37
2017-06-29T07:58:32.655Z,4.87
2017-06-29T08:01:00.947Z,4.03
2017-06-29T08:03:29.399Z,3.17
2017-06-29T08:05:58.554Z,2.57
2017-06-29T08:08:26.839Z,2.67
2017-06-29T08:10:55.175Z,2.10
2017-06-29T08:13:23.515Z,1.80
2017-06-29T08:15:52.571Z,2.30
2017-06-29T08:18:20.999Z,1.93
2017-06-29T08:20:49.292Z,1.60
2017-06-29T08:23:17.607Z,1.50
2017-06-29T08:25:46.724Z,1.93
2017-06-29T08:28:15.024Z,1.40
2017-06-29T08:30:43.323Z,1.30
2017-06-29T08:33:11.652Z,1.70
2017-06-29T08:35:40.001Z,2.57
2017-06-29T08:38:08.304Z,2.13
2017-06-29T08:40:36.591Z,2.00
2017-06-29T08:43:04.930Z,2.50
2017-06-29T08:45:33.230Z,2.27
2017-06-29T08:48:02.284Z,2.40
2017-06-29T08:50:30.619Z,2.50
2017-06-29T08:53:00.012Z,3.33
2017-06-29T08:55:28.308Z,3.60
2017-06-29T08:57:56.605Z,3.00
2017-06-29T09:00:24.965Z,3.20
2017-06-29T09:02:53.257Z,3.63
2017-06-29T09:05:22.315Z,3.80
2017-06-29T09:07:50.666Z,4.70
2017-06-29T09:10:19.056Z,3.60
2017-06-29T09:12:48.183Z,4.33
2017-06-29T09:15:16.483Z,4.10
2017-06-29T09:17:44.846Z,3.90
2017-06-29T09:20:13.375Z,4.07
2017-06-29T09:22:41.765Z,3.87
2017-06-29T09:25:10.965Z,4.50
2017-06-29T09:27:40.143Z,4.03
2017-06-29T09:30:08.795Z,4.23
2017-06-29T09:32:38.375Z,3.80
2017-06-29T09:35:07.214Z,4.00
2017-06-29T09:37:36.808Z,4.40
2017-06-29T09:40:05.485Z,5.50
2017-06-29T09:42:34.192Z,4.27
2017-06-29T09:45:02.952Z,4.90
2017-06-29T09:47:33.688Z,5.00
2017-06-29T09:50:02.448Z,4.60
2017-06-29T09:52:31.529Z,4.13
2017-06-29T09:55:00.094Z,3.97
2017-06-29T09:57:28.632Z,3.87
2017-06-29T09:59:57.118Z,3.83
2017-06-29T10:02:26.553Z,4.10
2017-06-29T10:04:55.143Z,4.50
2017-06-29T10:07:23.788Z,3.57
2017-06-29T10:09:53.458Z,5.00
2017-06-29T10:12:21.835Z,4.13
2017-06-29T10:14:50.183Z,3.70
2017-06-29T10:17:18.468Z,3.60
2017-06-29T10:19:46.816Z,3.33
2017-06-29T10:22:15.112Z,2.83
2017-06-29T10:24:43.418Z,4.00
2017-06-29T10:27:12.521Z,4.07
2017-06-29T10:29:40.825Z,4.00
2017-06-29T10:32:09.932Z,3.23
2017-06-29T10:34:42.199Z,3.70
2017-06-29T10:37:12.087Z,4.00
2017-06-29T10:39:40.387Z,3.20
2017-06-29T10:42:08.712Z,4.10
2017-06-29T10:44:37.820Z,3.40
2017-06-29T10:47:06.883Z,3.83
2017-06-29T10:49:35.220Z,3.10
2017-06-29T10:52:04.318Z,3.60
2017-06-29T10:54:36.531Z,3.50
2017-06-29T10:57:04.864Z,3.80
2017-06-29T10:59:33.346Z,3.70
2017-06-29T11:02:01.655Z,3.27
2017-06-29T11:04:29.951Z,3.27
2017-06-29T11:06:58.402Z,3.83
2017-06-29T11:09:26.705Z,4.07
2017-06-29T11:11:55.604Z,4.00
2017-06-29T11:14:23.944Z,3.70
2017-06-29T11:16:52.295Z,3.43
2017-06-29T11:19:20.587Z,3.40
2017-06-29T11:21:48.878Z,2.77
2017-06-29T11:24:17.236Z,4.07
2017-06-29T11:26:45.535Z,2.37
2017-06-29T11:29:13.880Z,3.23
2017-06-29T11:31:42.943Z,2.57
2017-06-29T11:34:11.301Z,3.27
2017-06-29T11:36:39.600Z,2.83
2017-06-29T11:39:07.906Z,2.60
2017-06-29T11:41:36.268Z,2.83
2017-06-29T11:44:04.564Z,2.53
2017-06-29T11:46:32.856Z,2.70
2017-06-29T11:49:01.291Z,2.73
2017-06-29T11:51:29.588Z,3.33
2017-06-29T11:53:58.737Z,2.67
2017-06-29T11:56:27.577Z,3.07
2017-06-29T11:58:58.791Z,3.10
2017-06-29T12:01:29.093Z,3.87
2017-06-29T12:03:57.432Z,3.20
2017-06-29T12:06:26.112Z,3.17
2017-06-29T12:08:54.416Z,3.90
2017-06-29T12:11:22.716Z,3.23
2017-06-29T12:13:51.203Z,3.17
2017-06-29T12:16:19.500Z,2.97
2017-06-29T12:18:47.806Z,3.20
2017-06-29T12:21:20.380Z,3.00
2017-06-29T12:23:48.683Z,3.13
2017-06-29T12:26:17.019Z,3.30
2017-06-29T12:28:47.117Z,3.20
2017-06-29T12:31:15.605Z,3.70
2017-06-29T12:33:43.892Z,3.40
2017-06-29T12:36:13.096Z,2.50
2017-06-29T12:38:41.452Z,3.57
2017-06-29T12:41:09.739Z,3.50
2017-06-29T12:43:38.030Z,3.60
2017-06-29T12:46:06.374Z,2.50
2017-06-29T12:48:34.708Z,2.90
2017-06-29T12:51:04.092Z,3.57
2017-06-29T12:53:32.424Z,2.90
2017-06-29T12:56:00.709Z,2.50
2017-06-29T12:58:29.194Z,3.30
2017-06-29T13:00:57.487Z,2.80
2017-06-29T13:03:25.776Z,3.17
2017-06-29T13:05:54.110Z,3.10
2017-06-29T13:08:22.399Z,2.90
2017-06-29T13:10:50.740Z,3.60
2017-06-29T13:13:19.148Z,2.80
2017-06-29T13:15:47.472Z,2.70
2017-06-29T13:18:15.768Z,3.40
2017-06-29T13:20:44.140Z,3.43
2017-06-29T13:23:13.336Z,2.67
2017-06-29T13:25:41.639Z,2.90
2017-06-29T13:28:10.078Z,3.40
2017-06-29T13:30:38.372Z,2.87
2017-06-29T13:33:07.431Z,2.53
2017-06-29T13:35:35.770Z,2.60
2017-06-29T13:38:04.107Z,2.80
2017-06-29T13:40:32.405Z,2.87
2017-06-29T13:43:00.981Z,2.57
2017-06-29T13:45:29.292Z,1.93
2017-06-29T13:47:57.807Z,2.80
2017-06-29T13:50:26.122Z,3.90
2017-06-29T13:52:54.407Z,2.53
2017-06-29T13:55:23.644Z,3.33
2017-06-29T13:57:51.960Z,2.03
2017-06-29T14:00:21.188Z,3.10
2017-06-29T14:02:49.519Z,2.90
2017-06-29T14:05:17.860Z,4.67
2017-06-29T14:07:46.246Z,3.10
2017-06-29T14:10:14.682Z,2.90
2017-06-29T14:12:43.008Z,2.67
2017-06-29T14:15:11.357Z,3.13
2017-06-29T14:17:40.572Z,3.30
2017-06-29T14:20:10.753Z,2.43
2017-06-29T14:22:39.040Z,2.50
2017-06-29T14:25:07.385Z,2.50
2017-06-29T14:27:35.756Z,2.37
2017-06-29T14:30:04.043Z,2.40
2017-06-29T14:32:32.355Z,2.30
2017-06-29T14:35:00.696Z,2.47
2017-06-29T14:37:29.969Z,2.50
2017-06-29T14:39:58.267Z,2.60
2017-06-29T14:42:26.574Z,2.83
2017-06-29T14:44:54.928Z,2.77
2017-06-29T14:47:23.991Z,2.17
2017-06-29T14:49:52.283Z,2.60
2017-06-29T14:52:20.623Z,2.43
2017-06-29T14:54:48.915Z,2.97
2017-06-29T14:57:17.437Z,2.20
2017-06-29T14:59:45.984Z,2.70
2017-06-29T15:02:14.376Z,3.60
2017-06-29T15:04:42.711Z,4.27
2017-06-29T15:07:11.988Z,3.80
2017-06-29T15:09:40.340Z,4.20
2017-06-29T15:12:08.641Z,3.30
2017-06-29T15:14:36.982Z,4.83
2017-06-29T15:17:05.441Z,4.37
2017-06-29T15:19:34.561Z,4.80
2017-06-29T15:22:03.029Z,4.57
2017-06-29T15:24:31.379Z,4.93
2017-06-29T15:26:59.704Z,5.20
2017-06-29T15:29:28.009Z,5.17
2017-06-29T15:31:57.206Z,5.90
2017-06-29T15:34:25.500Z,6.33
2017-06-29T15:36:53.792Z,4.97
2017-06-29T15:39:22.124Z,4.80
2017-06-29T15:41:50.471Z,5.70
2017-06-29T15:44:19.540Z,5.20
2017-06-29T15:46:47.837Z,5.90
2017-06-29T15:49:16.188Z,5.50
2017-06-29T15:51:44.483Z,5.27
2017-06-29T15:54:13.467Z,4.90
2017-06-29T15:56:42.524Z,5.73
2017-06-29T15:59:10.845Z,5.53
2017-06-29T16:01:42.051Z,6.27
2017-06-29T16:04:10.339Z,7.70
2017-06-29T16:06:38.645Z,7.60
2017-06-29T16:09:07.028Z,7.93
2017-06-29T16:11:35.329Z,7.77
2017-06-29T16:14:04.348Z,7.60
2017-06-29T16:16:32.651Z,6.87
2017-06-29T16:19:00.952Z,7.70
2017-06-29T16:21:30.734Z,8.50
2017-06-29T16:23:59.045Z,7.13
2017-06-29T16:26:28.132Z,7.73
2017-06-29T16:28:56.482Z,7.10
2017-06-29T16:31:24.785Z,7.70
2017-06-29T16:33:53.233Z,6.87
2017-06-29T16:36:21.536Z,5.90
2017-06-29T16:38:50.593Z,6.80
2017-06-29T16:41:18.941Z,6.97
2017-06-29T16:43:47.436Z,6.53
2017-06-29T16:46:15.780Z,5.53
2017-06-29T16:48:44.074Z,6.10
2017-06-29T16:51:12.401Z,6.00
2017-06-29T16:53:41.504Z,6.23
2017-06-29T16:56:09.805Z,6.13
2017-06-29T16:58:40.394Z,5.60
2017-06-29T17:01:08.701Z,5.47
2017-06-29T17:03:38.012Z,5.87
2017-06-29T17:06:06.324Z,5.07
2017-06-29T17:08:34.621Z,5.43
2017-06-29T17:11:03.689Z,6.30
2017-06-29T17:13:32.360Z,4.73
2017-06-29T17:16:00.707Z,4.63
2017-06-29T17:18:34.239Z,5.00
2017-06-29T17:21:03.683Z,5.27
2017-06-29T17:23:32.282Z,4.60
2017-06-29T17:28:30.568Z,5.00
2017-06-29T17:30:58.966Z,5.10
2017-06-29T17:33:27.448Z,5.90
2017-06-29T17:35:55.775Z,5.63
2017-06-29T17:38:24.083Z,6.07
2017-06-29T17:40:52.411Z,5.00
2017-06-29T17:43:21.491Z,5.27
2017-06-29T17:45:50.041Z,5.30
2017-06-29T17:48:18.349Z,6.27
2017-06-29T17:50:46.643Z,5.47
2017-06-29T17:53:15.063Z,5.80
2017-06-29T17:55:43.391Z,5.50
2017-06-29T17:58:11.734Z,5.93
2017-06-29T18:00:40.078Z,4.77
2017-06-29T18:03:09.972Z,5.43
2017-06-29T18:05:38.276Z,4.63
2017-06-29T18:08:07.789Z,5.07
2017-06-29T18:10:36.917Z,4.83
2017-06-29T18:13:34.035Z,4.50
2017-06-29T18:16:03.424Z,4.40
2017-06-29T18:18:31.810Z,4.17
2017-06-29T18:23:57.864Z,4.80
2017-06-29T18:26:26.343Z,3.70
2017-06-29T18:28:55.658Z,4.70
2017-06-29T18:31:23.963Z,4.10
2017-06-29T18:33:52.317Z,5.40
2017-06-29T18:36:20.735Z,3.67
2017-06-29T18:38:49.100Z,4.10
2017-06-29T18:41:18.163Z,4.03
2017-06-29T18:43:46.471Z,4.93
2017-06-29T18:46:15.384Z,5.03
2017-06-29T18:48:43.664Z,4.13
2017-06-29T18:51:11.967Z,4.40
2017-06-29T18:53:40.299Z,4.80
2017-06-29T18:56:08.649Z,4.67
2017-06-29T18:58:38.115Z,5.10
2017-06-29T19:01:06.419Z,4.17
2017-06-29T19:03:34.877Z,4.40
2017-06-29T19:06:03.179Z,4.17
2017-06-29T19:08:31.499Z,4.83
2017-06-29T19:10:59.847Z,4.63
2017-06-29T19:13:28.165Z,4.50
2017-06-29T19:15:56.467Z,3.63
2017-06-29T19:18:24.800Z,4.03
2017-06-29T19:20:53.869Z,5.00
2017-06-29T19:23:22.235Z,4.50
2017-06-29T19:25:50.535Z,4.50
2017-06-29T19:28:18.851Z,5.00
2017-06-29T19:30:47.192Z,5.57
2017-06-29T19:33:15.487Z,4.47
2017-06-29T19:35:43.840Z,4.23
2017-06-29T19:38:12.953Z,5.40
2017-06-29T19:40:41.306Z,5.40
2017-06-29T19:43:09.611Z,6.17
2017-06-29T19:45:37.912Z,8.35
2017-06-29T20:26:12.220Z,4.30
2017-06-29T20:28:40.521Z,4.60
2017-06-29T20:31:35.758Z,3.93
2017-06-29T20:39:47.453Z,3.30
2017-06-29T20:42:16.757Z,2.60
2017-06-29T20:44:46.040Z,3.23
2017-06-29T20:47:15.388Z,2.70
2017-06-29T21:13:13.235Z,2.40
2017-06-29T21:15:41.531Z,2.77
2017-06-29T21:18:10.024Z,2.87
2017-06-29T21:20:38.311Z,2.10
2017-06-29T21:23:06.599Z,2.40
2017-06-29T21:25:34.945Z,3.00
2017-06-29T21:28:03.231Z,1.93
